GCFV/FUE METAR and TAF weather

Enter ICAO airport designator
Station Type Date Time Source
GCFV METAR 2019/02/23 03:00 UTC NOAA

GCFV 230300Z AUTO 32009KT 9999 NCD 19/10 Q1023


Station Type Date Time Source
GCFV Decoded METAR 2019/02/23 03:00 UTC NOAA

Fuerteventura / Aeropuerto, Spain (GCFV) 28-27N 013-52W 30M
Feb 22, 2019 - 10:00 PM EST / 2019.02.23 0300 UTC
Wind: from the NW (320 degrees) at 10 MPH (9 KT):0
Visibility: greater than 7 mile(s):0
Temperature: 66 F (19 C)
Dew Point: 50 F (10 C)
Relative Humidity: 55%
Pressure (altimeter): 30.21 in. Hg (1023 hPa)
ob: GCFV 230300Z AUTO 32009KT 9999 NCD 19/10 Q1023
cycle: 3

Station Type Date Time Source
GCFV TAF 2019/02/23 03:30 UTC NOAA

TAF GCFV 230200Z 2303/2403 35006KT 8000 NSC TX26/2314Z TN16/2306Z
BECMG 2310/2312 13010KT PROB40
TEMPO 2309/2319 4000 HZ
BECMG 2317/2319 35007KT


Example: see airport list